createdAt,value
2023-03-02T00:00:16.123Z,18.65
2023-03-02T00:02:22.288Z,17.77
2023-03-02T00:04:27.980Z,17.98
2023-03-02T00:06:32.366Z,17.35
2023-03-02T00:08:37.453Z,17.88
2023-03-02T00:10:40.199Z,17.52
2023-03-02T00:12:42.930Z,18.00
2023-03-02T00:14:45.847Z,17.23
2023-03-02T00:16:48.508Z,17.55
2023-03-02T00:18:51.183Z,19.10
2023-03-02T00:20:53.888Z,18.38
2023-03-02T00:22:56.632Z,16.92
2023-03-02T00:25:00.716Z,18.13
2023-03-02T00:27:03.400Z,17.17
2023-03-02T00:29:06.135Z,17.40
2023-03-02T00:31:08.996Z,18.13
2023-03-02T00:33:11.802Z,18.77
2023-03-02T00:35:14.502Z,17.02
2023-03-02T00:37:17.851Z,17.67
2023-03-02T00:39:20.627Z,18.13
2023-03-02T00:41:24.794Z,19.00
2023-03-02T00:43:28.181Z,18.48
2023-03-02T00:45:31.229Z,17.38
2023-03-02T00:47:35.300Z,17.65
2023-03-02T00:49:38.245Z,18.55
2023-03-02T00:51:41.002Z,18.42
2023-03-02T00:53:43.984Z,19.00
2023-03-02T00:55:54.629Z,19.33
2023-03-02T00:57:59.829Z,17.23
2023-03-02T01:00:06.862Z,18.25
2023-03-02T01:02:13.498Z,18.63
2023-03-02T01:04:16.291Z,18.85
2023-03-02T01:06:21.329Z,18.20
2023-03-02T01:08:25.113Z,18.27
2023-03-02T01:10:27.820Z,17.92
2023-03-02T01:12:30.573Z,18.70
2023-03-02T01:14:34.696Z,19.55
2023-03-02T01:16:37.702Z,18.80
2023-03-02T01:18:41.406Z,18.55
2023-03-02T01:20:44.121Z,16.75
2023-03-02T01:22:47.012Z,18.70
2023-03-02T01:24:50.309Z,17.80
2023-03-02T01:26:53.060Z,17.42
2023-03-02T01:28:56.347Z,17.13
2023-03-02T01:31:01.301Z,17.65
2023-03-02T01:33:04.144Z,18.58
2023-03-02T01:35:07.565Z,16.60
2023-03-02T01:37:10.266Z,19.00
2023-03-02T01:39:15.901Z,18.52
2023-03-02T01:41:18.914Z,17.42
2023-03-02T01:43:25.674Z,19.25
2023-03-02T01:45:57.131Z,19.20
2023-03-02T01:48:10.404Z,17.85
2023-03-02T01:50:20.834Z,19.17
2023-03-02T01:52:25.734Z,18.40
2023-03-02T01:54:28.904Z,18.45
2023-03-02T01:56:38.218Z,18.02
2023-03-02T01:58:41.269Z,18.15
2023-03-02T02:00:45.351Z,18.92
2023-03-02T02:02:48.753Z,18.92
2023-03-02T02:04:55.483Z,17.20
2023-03-02T02:07:03.224Z,17.77
2023-03-02T02:09:09.289Z,16.85
2023-03-02T02:11:12.586Z,17.83
2023-03-02T02:13:15.405Z,15.85
2023-03-02T02:15:18.908Z,18.48
2023-03-02T02:17:22.112Z,16.55
2023-03-02T02:19:37.086Z,18.98
2023-03-02T02:21:41.555Z,19.30
2023-03-02T02:23:51.306Z,17.95
2023-03-02T02:26:10.777Z,18.27
2023-03-02T02:28:18.928Z,19.38
2023-03-02T02:30:24.216Z,17.35
2023-03-02T02:32:30.281Z,18.83
2023-03-02T02:34:36.434Z,18.30
2023-03-02T02:36:43.207Z,18.42
2023-03-02T02:38:54.670Z,18.20
2023-03-02T02:41:01.012Z,18.35
2023-03-02T02:43:12.906Z,16.98
2023-03-02T02:45:22.364Z,18.65
2023-03-02T02:47:26.081Z,17.77
2023-03-02T02:49:33.285Z,18.85
2023-03-02T02:51:36.200Z,19.58
2023-03-02T02:53:45.650Z,19.80
2023-03-02T02:55:51.494Z,19.23
2023-03-02T02:57:57.463Z,18.38
2023-03-02T03:00:02.726Z,18.23
2023-03-02T03:02:08.034Z,18.08
2023-03-02T03:04:16.324Z,19.05
2023-03-02T03:06:23.253Z,19.00
2023-03-02T03:08:53.095Z,19.60
2023-03-02T03:11:01.220Z,19.23
2023-03-02T03:13:04.099Z,18.05
2023-03-02T03:15:09.739Z,18.80
2023-03-02T03:17:13.902Z,19.30
2023-03-02T03:19:26.698Z,19.90
2023-03-02T03:21:30.303Z,18.42
2023-03-02T03:23:33.154Z,19.02
2023-03-02T03:25:35.900Z,18.65
2023-03-02T03:27:39.274Z,20.52
2023-03-02T03:29:46.877Z,18.58
2023-03-02T03:31:52.464Z,25.83
2023-03-02T03:33:56.386Z,20.08
2023-03-02T03:36:00.732Z,19.20
2023-03-02T03:38:04.324Z,19.80
2023-03-02T03:40:11.426Z,20.17
2023-03-02T03:42:17.139Z,18.75
2023-03-02T03:44:20.819Z,19.40
2023-03-02T03:46:24.387Z,19.67
2023-03-02T03:48:29.017Z,19.40
2023-03-02T03:50:31.774Z,18.98
2023-03-02T03:52:34.593Z,20.23
2023-03-02T03:54:48.032Z,19.42
2023-03-02T03:56:51.966Z,18.77
2023-03-02T03:59:06.581Z,18.70
2023-03-02T04:01:13.376Z,19.35
2023-03-02T04:03:16.488Z,18.05
2023-03-02T04:05:20.926Z,19.17
2023-03-02T04:07:27.051Z,18.08
2023-03-02T04:09:32.116Z,18.80
2023-03-02T04:11:36.504Z,19.60
2023-03-02T04:13:39.443Z,19.58
2023-03-02T04:15:43.332Z,18.35
2023-03-02T04:17:48.249Z,19.08
2023-03-02T04:19:53.692Z,19.65
2023-03-02T04:21:58.489Z,20.10
2023-03-02T04:24:01.914Z,19.60
2023-03-02T04:26:05.235Z,19.90
2023-03-02T04:28:08.680Z,18.83
2023-03-02T04:30:15.399Z,20.17
2023-03-02T04:32:18.166Z,20.58
2023-03-02T04:34:26.494Z,19.90
2023-03-02T04:36:30.745Z,23.70
2023-03-02T04:38:37.601Z,26.70
2023-03-02T04:40:40.387Z,23.77
2023-03-02T04:42:44.628Z,21.40
2023-03-02T04:44:47.721Z,23.88
2023-03-02T04:46:51.351Z,23.45
2023-03-02T04:48:54.470Z,24.35
2023-03-02T04:50:57.266Z,24.23
2023-03-02T04:52:59.996Z,22.02
2023-03-02T04:55:04.564Z,21.70
2023-03-02T04:57:08.489Z,21.80
2023-03-02T04:59:11.478Z,20.60
2023-03-02T05:01:15.857Z,22.17
2023-03-02T05:03:18.613Z,21.40
2023-03-02T05:05:22.901Z,20.65
2023-03-02T05:07:25.667Z,21.23
2023-03-02T05:09:30.761Z,20.88
2023-03-02T05:11:35.267Z,20.42
2023-03-02T05:13:38.020Z,20.50
2023-03-02T05:15:43.544Z,20.95
2023-03-02T05:17:46.584Z,21.35
2023-03-02T05:19:49.392Z,21.77
2023-03-02T05:21:52.539Z,21.63
2023-03-02T05:23:55.595Z,21.23
2023-03-02T05:25:58.743Z,21.98
2023-03-02T05:28:03.685Z,21.27
2023-03-02T05:30:07.744Z,20.83
2023-03-02T05:32:12.466Z,22.25
2023-03-02T05:34:17.170Z,21.15
2023-03-02T05:36:21.655Z,22.10
2023-03-02T05:38:27.378Z,21.45
2023-03-02T05:40:30.390Z,21.38
2023-03-02T05:42:33.780Z,21.27
2023-03-02T05:44:37.851Z,21.83
2023-03-02T05:46:41.623Z,21.95
2023-03-02T05:48:45.329Z,21.70
2023-03-02T05:50:48.041Z,21.23
2023-03-02T05:52:51.411Z,21.55
2023-03-02T05:54:54.057Z,21.15
2023-03-02T05:56:56.695Z,21.88
2023-03-02T05:58:59.366Z,21.38
2023-03-02T06:01:03.494Z,21.52
2023-03-02T06:03:06.231Z,22.20
2023-03-02T06:05:11.493Z,21.02
2023-03-02T06:07:14.646Z,20.38
2023-03-02T06:09:17.322Z,21.15
2023-03-02T06:11:20.059Z,21.65
2023-03-02T06:13:22.742Z,21.98
2023-03-02T06:15:25.476Z,21.20
2023-03-02T06:17:29.621Z,22.67
2023-03-02T06:19:32.296Z,22.80
2023-03-02T06:21:35.020Z,22.63
2023-03-02T06:23:37.798Z,20.98
2023-03-02T06:25:43.641Z,23.30
2023-03-02T06:27:46.820Z,21.80
2023-03-02T06:29:49.680Z,23.15
2023-03-02T06:31:52.604Z,21.65
2023-03-02T06:33:57.268Z,23.33
2023-03-02T06:36:00.170Z,22.35
2023-03-02T06:38:03.133Z,22.63
2023-03-02T06:40:10.246Z,22.30
2023-03-02T06:42:13.379Z,21.58
2023-03-02T06:44:17.555Z,22.25
2023-03-02T06:46:20.300Z,22.10
2023-03-02T06:48:23.076Z,21.65
2023-03-02T06:50:27.549Z,20.73
2023-03-02T06:52:30.291Z,21.27
2023-03-02T06:54:33.046Z,21.52
2023-03-02T06:56:36.210Z,20.65
2023-03-02T06:58:38.925Z,19.73
2023-03-02T07:00:41.802Z,20.45
2023-03-02T07:02:45.772Z,21.00
2023-03-02T07:04:48.505Z,19.58
2023-03-02T07:06:52.586Z,20.17
2023-03-02T07:08:55.374Z,19.65
2023-03-02T07:10:58.154Z,21.60
2023-03-02T07:13:00.933Z,23.02
2023-03-02T07:15:03.872Z,20.85
2023-03-02T07:17:06.736Z,21.08
2023-03-02T07:19:13.101Z,20.95
2023-03-02T07:21:15.911Z,21.15
2023-03-02T07:23:19.982Z,21.10
2023-03-02T07:25:22.697Z,21.77
2023-03-02T07:27:25.505Z,22.10
2023-03-02T07:29:28.319Z,24.10
2023-03-02T07:31:31.354Z,22.35
2023-03-02T07:33:34.482Z,20.63
2023-03-02T07:35:37.321Z,20.73
2023-03-02T07:37:40.386Z,19.85
2023-03-02T07:39:44.554Z,22.08
2023-03-02T07:41:47.616Z,20.58
2023-03-02T07:43:50.500Z,21.70
2023-03-02T07:45:53.630Z,21.38
2023-03-02T07:47:56.458Z,20.60
2023-03-02T07:49:59.288Z,21.05
2023-03-02T07:52:02.101Z,21.40
2023-03-02T07:54:05.074Z,19.35
2023-03-02T07:56:11.192Z,20.02
2023-03-02T07:58:13.940Z,19.45
2023-03-02T08:00:17.812Z,19.33
2023-03-02T08:02:21.368Z,19.95
2023-03-02T08:04:24.891Z,20.30
2023-03-02T08:06:27.582Z,20.42
2023-03-02T08:08:30.307Z,20.55
2023-03-02T08:10:35.089Z,20.90
2023-03-02T08:12:39.274Z,19.40
2023-03-02T08:14:42.017Z,19.23
2023-03-02T08:16:44.742Z,20.02
2023-03-02T08:18:48.113Z,19.05
2023-03-02T08:20:50.878Z,19.40
2023-03-02T08:22:53.774Z,19.23
2023-03-02T08:24:56.594Z,21.88
2023-03-02T08:27:01.971Z,19.48
2023-03-02T08:29:06.629Z,19.63
2023-03-02T08:31:10.753Z,20.10
2023-03-02T08:33:13.560Z,19.90
2023-03-02T08:35:16.402Z,18.63
2023-03-02T08:37:19.537Z,19.88
2023-03-02T08:39:23.602Z,19.33
2023-03-02T08:41:26.756Z,19.80
2023-03-02T08:43:29.543Z,18.55
2023-03-02T08:45:35.584Z,19.83
2023-03-02T08:47:38.409Z,18.45
2023-03-02T08:49:41.368Z,20.20
2023-03-02T08:51:44.553Z,19.02
2023-03-02T08:53:50.391Z,18.85
2023-03-02T08:55:53.255Z,19.65
2023-03-02T08:57:56.024Z,19.02
2023-03-02T08:59:58.760Z,20.08
2023-03-02T09:02:02.866Z,18.33
2023-03-02T09:04:07.618Z,18.98
2023-03-02T09:06:10.438Z,18.67
2023-03-02T09:08:13.977Z,19.88
2023-03-02T09:10:16.731Z,19.65
2023-03-02T09:12:19.472Z,19.65
2023-03-02T09:14:22.355Z,19.42
2023-03-02T09:16:25.755Z,18.70
2023-03-02T09:18:30.657Z,20.25
2023-03-02T09:20:33.998Z,18.83
2023-03-02T09:22:37.068Z,19.45
2023-03-02T09:24:39.898Z,20.33
2023-03-02T09:26:42.551Z,20.77
2023-03-02T09:28:45.225Z,18.65
2023-03-02T09:30:50.062Z,20.60
2023-03-02T09:32:52.872Z,20.58
2023-03-02T09:34:56.944Z,20.48
2023-03-02T09:36:59.714Z,19.92
2023-03-02T09:39:08.412Z,19.80
2023-03-02T09:41:40.581Z,20.40
2023-03-02T09:43:48.923Z,18.75
2023-03-02T09:46:05.042Z,19.10
2023-03-02T09:48:20.765Z,18.25
2023-03-02T09:50:32.483Z,19.95
2023-03-02T09:52:40.572Z,19.35
2023-03-02T09:54:43.526Z,18.55
2023-03-02T09:56:49.658Z,19.10
2023-03-02T09:58:59.205Z,17.05
2023-03-02T10:01:07.497Z,17.35
2023-03-02T10:03:18.238Z,17.95
2023-03-02T10:05:24.257Z,19.27
2023-03-02T10:07:30.465Z,17.80
2023-03-02T10:09:33.371Z,18.38
2023-03-02T10:11:47.715Z,18.80
2023-03-02T10:13:55.635Z,19.90
2023-03-02T10:16:13.869Z,20.65
2023-03-02T10:18:22.214Z,20.80
2023-03-02T10:20:34.592Z,21.30
2023-03-02T10:22:42.241Z,18.42
2023-03-02T10:24:51.278Z,19.20
2023-03-02T10:26:55.749Z,18.65
2023-03-02T10:29:05.223Z,17.48
2023-03-02T10:31:10.799Z,18.55
2023-03-02T10:33:18.144Z,17.80
2023-03-02T10:35:24.020Z,19.88
2023-03-02T10:37:31.780Z,18.90
2023-03-02T10:39:35.846Z,22.50
2023-03-02T10:41:44.117Z,23.48
2023-03-02T10:43:49.916Z,18.63
2023-03-02T10:46:00.790Z,18.20
2023-03-02T10:48:05.027Z,18.80
2023-03-02T10:50:23.033Z,18.52
2023-03-02T10:52:27.609Z,19.48
2023-03-02T10:54:32.931Z,18.20
2023-03-02T10:56:37.094Z,20.02
2023-03-02T10:58:39.864Z,17.88
2023-03-02T11:00:42.855Z,17.20
2023-03-02T11:02:53.287Z,18.17
2023-03-02T11:04:58.289Z,17.52
2023-03-02T11:07:09.108Z,19.15
2023-03-02T11:09:15.714Z,17.38
2023-03-02T11:11:23.682Z,17.55
2023-03-02T11:13:32.213Z,18.98
2023-03-02T11:15:38.158Z,18.48
2023-03-02T11:17:44.496Z,18.85
2023-03-02T11:19:47.431Z,20.85
2023-03-02T11:21:57.754Z,19.92
2023-03-02T11:24:08.802Z,17.85
2023-03-02T11:26:20.055Z,18.65
2023-03-02T11:28:34.233Z,17.65
2023-03-02T11:30:42.769Z,17.45
2023-03-02T11:32:53.141Z,18.75
2023-03-02T11:34:59.259Z,18.35
2023-03-02T11:37:14.826Z,21.15
2023-03-02T11:39:21.703Z,19.40
2023-03-02T11:41:31.794Z,18.80
2023-03-02T11:43:40.905Z,17.52
2023-03-02T11:45:46.952Z,19.02
2023-03-02T11:48:02.357Z,20.52
2023-03-02T11:50:07.869Z,19.38
2023-03-02T11:52:19.806Z,18.35
2023-03-02T11:54:33.913Z,18.95
2023-03-02T11:56:40.592Z,18.48
2023-03-02T11:58:47.802Z,19.25
2023-03-02T12:00:53.213Z,18.85
2023-03-02T12:03:04.018Z,19.58
2023-03-02T12:05:09.367Z,18.90
2023-03-02T12:07:22.900Z,19.60
2023-03-02T12:09:38.045Z,18.80
2023-03-02T12:11:42.069Z,27.95
2023-03-02T12:13:58.508Z,23.88
2023-03-02T12:16:02.006Z,23.00
2023-03-02T12:18:30.446Z,19.58
2023-03-02T12:20:36.065Z,18.80
2023-03-02T12:22:40.303Z,19.70
2023-03-02T12:24:45.823Z,20.08
2023-03-02T12:26:48.654Z,20.08
2023-03-02T12:29:02.128Z,19.33
2023-03-02T12:31:11.895Z,19.23
2023-03-02T12:33:22.096Z,19.17
2023-03-02T12:35:26.125Z,18.67
2023-03-02T12:37:32.882Z,18.67
2023-03-02T12:39:51.649Z,18.98
2023-03-02T12:42:13.623Z,19.83
2023-03-02T12:44:43.868Z,18.85
2023-03-02T12:46:48.265Z,19.08
2023-03-02T12:49:01.577Z,19.30
2023-03-02T12:51:07.222Z,18.63
2023-03-02T12:53:18.969Z,20.40
2023-03-02T12:55:21.903Z,18.27
2023-03-02T12:57:24.686Z,22.25
2023-03-02T12:59:30.288Z,18.80
2023-03-02T13:01:35.439Z,19.58
2023-03-02T13:03:47.302Z,20.13
2023-03-02T13:05:50.610Z,21.08
2023-03-02T13:08:01.208Z,22.70
2023-03-02T13:10:09.750Z,18.48
2023-03-02T13:12:15.051Z,30.45
2023-03-02T13:14:21.988Z,23.48
2023-03-02T13:16:28.134Z,20.77
2023-03-02T13:18:33.383Z,19.08
2023-03-02T13:20:36.239Z,19.17
2023-03-02T13:22:39.175Z,18.95
2023-03-02T13:24:49.573Z,19.08
2023-03-02T13:26:57.139Z,19.20
2023-03-02T13:29:05.677Z,17.95
2023-03-02T13:31:20.630Z,18.80
2023-03-02T13:33:26.521Z,21.75
2023-03-02T13:35:31.834Z,21.38
2023-03-02T13:37:40.461Z,20.85
2023-03-02T13:39:43.249Z,24.58
2023-03-02T13:41:54.363Z,18.70
2023-03-02T13:43:58.372Z,19.23
2023-03-02T13:46:03.313Z,20.27
2023-03-02T13:48:15.669Z,17.98
2023-03-02T13:50:21.833Z,18.02
2023-03-02T13:52:30.410Z,18.45
2023-03-02T13:54:35.801Z,19.77
2023-03-02T13:56:41.206Z,20.90
2023-03-02T13:58:44.120Z,19.40
2023-03-02T14:00:47.140Z,18.67
2023-03-02T14:02:50.537Z,22.52
2023-03-02T14:04:54.241Z,20.15
2023-03-02T14:06:58.471Z,20.83
2023-03-02T14:09:01.228Z,18.88
2023-03-02T14:11:05.924Z,18.17
2023-03-02T14:13:12.186Z,18.17
2023-03-02T14:15:17.064Z,17.88
2023-03-02T14:17:24.341Z,17.30
2023-03-02T14:19:27.121Z,17.77
2023-03-02T14:21:30.101Z,20.80
2023-03-02T14:23:34.395Z,18.27
2023-03-02T14:25:37.131Z,17.90
2023-03-02T14:27:41.006Z,18.52
2023-03-02T14:29:45.138Z,18.00
2023-03-02T14:31:48.202Z,17.05
2023-03-02T14:33:51.055Z,17.73
2023-03-02T14:35:57.300Z,17.58
2023-03-02T14:38:00.197Z,18.73
2023-03-02T14:40:06.294Z,16.92
2023-03-02T14:42:13.596Z,18.40
2023-03-02T14:44:16.315Z,18.60
2023-03-02T14:46:19.157Z,17.70
2023-03-02T14:48:21.909Z,17.85
2023-03-02T14:50:24.710Z,18.17
2023-03-02T14:52:33.809Z,17.95
2023-03-02T14:54:41.639Z,18.80
2023-03-02T14:56:46.834Z,18.60
2023-03-02T14:58:51.314Z,20.53
2023-03-02T15:00:54.040Z,17.52
2023-03-02T15:02:56.852Z,18.77
2023-03-02T15:04:59.624Z,18.70
2023-03-02T15:07:02.378Z,19.75
2023-03-02T15:09:05.136Z,17.98
2023-03-02T15:11:08.118Z,18.07
2023-03-02T15:13:13.741Z,18.73
2023-03-02T15:15:16.973Z,17.33
2023-03-02T15:17:22.077Z,17.60
2023-03-02T15:19:25.064Z,18.23
2023-03-02T15:21:28.063Z,17.97
2023-03-02T15:23:31.005Z,18.27
2023-03-02T15:25:33.674Z,18.30
2023-03-02T15:27:36.485Z,17.87
2023-03-02T15:29:45.935Z,17.20
2023-03-02T15:31:49.029Z,18.93
2023-03-02T15:33:52.224Z,19.30
2023-03-02T15:35:55.690Z,18.30
2023-03-02T15:38:02.481Z,19.03
2023-03-02T15:40:07.175Z,18.07
2023-03-02T15:42:11.213Z,19.20
2023-03-02T15:44:21.910Z,18.17
2023-03-02T15:46:27.896Z,19.07
2023-03-02T15:48:31.097Z,18.60
2023-03-02T15:50:33.952Z,18.17
2023-03-02T15:52:36.742Z,19.07
2023-03-02T15:54:39.680Z,19.80
2023-03-02T15:56:44.515Z,21.60
2023-03-02T15:58:48.580Z,20.60
2023-03-02T16:00:53.480Z,21.07
2023-03-02T16:02:57.803Z,20.03
2023-03-02T16:05:00.755Z,19.40
2023-03-02T16:07:04.174Z,20.73
2023-03-02T16:09:07.203Z,19.83
2023-03-02T16:11:12.194Z,20.13
2023-03-02T16:13:15.067Z,19.73
2023-03-02T16:15:18.383Z,18.27
2023-03-02T16:17:21.452Z,20.00
2023-03-02T16:19:25.608Z,23.17
2023-03-02T16:21:29.613Z,20.13
2023-03-02T16:23:32.576Z,19.63
2023-03-02T16:25:36.213Z,24.10
2023-03-02T16:27:38.981Z,20.38
2023-03-02T16:29:43.257Z,25.73
2023-03-02T16:31:49.836Z,27.30
2023-03-02T16:33:52.821Z,24.92
2023-03-02T16:35:57.359Z,24.45
2023-03-02T16:38:00.478Z,21.75
2023-03-02T16:40:03.640Z,23.65
2023-03-02T16:42:06.630Z,20.60
2023-03-02T16:44:10.076Z,20.08
2023-03-02T16:46:13.058Z,19.23
2023-03-02T16:48:15.875Z,20.17
2023-03-02T16:50:19.169Z,20.33
2023-03-02T16:52:23.887Z,20.67
2023-03-02T16:54:29.088Z,20.52
2023-03-02T16:56:31.975Z,20.67
2023-03-02T16:58:38.180Z,19.88
2023-03-02T17:00:42.509Z,20.65
2023-03-02T17:02:45.740Z,20.23
2023-03-02T17:04:48.477Z,22.02
2023-03-02T17:07:00.512Z,22.05
2023-03-02T17:09:05.192Z,20.80
2023-03-02T17:11:08.342Z,21.90
2023-03-02T17:13:12.139Z,26.25
2023-03-02T17:15:14.966Z,27.60
2023-03-02T17:17:17.657Z,24.38
2023-03-02T17:19:20.725Z,25.08
2023-03-02T17:21:24.448Z,25.63
2023-03-02T17:23:28.629Z,24.52
2023-03-02T17:25:32.857Z,23.05
2023-03-02T17:27:35.607Z,22.17
2023-03-02T17:29:38.454Z,21.42
2023-03-02T17:31:41.171Z,21.15
2023-03-02T17:33:43.887Z,21.38
2023-03-02T17:35:47.184Z,21.77
2023-03-02T17:37:50.332Z,22.08
2023-03-02T17:39:53.414Z,22.08
2023-03-02T17:41:57.452Z,23.20
2023-03-02T17:44:00.395Z,24.48
2023-03-02T17:46:14.393Z,22.83
2023-03-02T17:48:17.112Z,23.17
2023-03-02T17:50:20.341Z,23.60
2023-03-02T17:52:23.052Z,22.42
2023-03-02T17:54:25.735Z,22.35
2023-03-02T17:56:29.998Z,21.95
2023-03-02T17:58:44.270Z,20.17
2023-03-02T18:00:48.164Z,20.63
2023-03-02T18:02:51.566Z,20.88
2023-03-02T18:04:54.372Z,21.00
2023-03-02T18:06:57.495Z,20.02
2023-03-02T18:09:00.378Z,20.77
2023-03-02T18:11:03.194Z,20.23
2023-03-02T18:13:05.996Z,20.42
2023-03-02T18:15:11.272Z,21.42
2023-03-02T18:17:14.993Z,20.13
2023-03-02T18:19:17.756Z,21.52
2023-03-02T18:21:20.508Z,21.58
2023-03-02T18:23:23.390Z,21.20
2023-03-02T18:25:26.946Z,21.85
2023-03-02T18:27:29.951Z,22.58
2023-03-02T18:29:33.651Z,23.70
2023-03-02T18:31:37.810Z,23.08
2023-03-02T18:33:40.723Z,22.77
2023-03-02T18:35:43.701Z,23.73
2023-03-02T18:37:46.624Z,21.63
2023-03-02T18:39:50.089Z,19.73
2023-03-02T18:41:52.973Z,20.23
2023-03-02T18:43:55.775Z,20.65
2023-03-02T18:45:58.588Z,22.45
2023-03-02T18:48:02.809Z,21.83
2023-03-02T18:50:06.316Z,23.98
2023-03-02T18:52:09.833Z,25.15
2023-03-02T18:54:12.590Z,23.50
2023-03-02T18:56:16.035Z,22.75
2023-03-02T18:58:20.334Z,22.40
2023-03-02T19:00:27.722Z,21.80
2023-03-02T19:02:30.663Z,25.75
2023-03-02T19:04:34.868Z,27.42
2023-03-02T19:06:37.651Z,24.75
2023-03-02T19:08:40.623Z,28.65
2023-03-02T19:10:43.423Z,27.70
2023-03-02T19:12:46.286Z,25.10
2023-03-02T19:14:49.198Z,24.90
2023-03-02T19:16:52.102Z,23.75
2023-03-02T19:18:54.981Z,23.50
2023-03-02T19:20:59.546Z,24.60
2023-03-02T19:23:02.740Z,26.40
2023-03-02T19:25:06.728Z,26.77
2023-03-02T19:27:11.553Z,24.00
2023-03-02T19:29:14.577Z,24.25
2023-03-02T19:31:17.822Z,24.38
2023-03-02T19:33:20.800Z,24.52
2023-03-02T19:35:26.431Z,25.45
2023-03-02T19:37:30.611Z,27.92
2023-03-02T19:39:33.424Z,31.17
2023-03-02T19:41:36.434Z,36.55
2023-03-02T19:43:40.452Z,29.63
2023-03-02T19:45:43.270Z,28.33
2023-03-02T19:47:47.034Z,24.98
2023-03-02T19:49:49.793Z,25.35
2023-03-02T19:51:52.602Z,24.33
2023-03-02T19:53:57.912Z,24.80
2023-03-02T19:56:01.404Z,28.27
2023-03-02T19:58:05.214Z,27.33
2023-03-02T20:00:12.115Z,23.08
2023-03-02T20:02:15.601Z,22.27
2023-03-02T20:04:19.239Z,22.98
2023-03-02T20:06:24.909Z,21.58
2023-03-02T20:08:27.720Z,21.63
2023-03-02T20:10:34.252Z,21.98
2023-03-02T20:12:37.632Z,21.95
2023-03-02T20:14:42.884Z,22.15
2023-03-02T20:16:45.757Z,27.00
2023-03-02T20:18:48.529Z,23.77
2023-03-02T20:20:51.285Z,21.52
2023-03-02T20:22:54.119Z,22.50
2023-03-02T20:24:57.077Z,22.65
2023-03-02T20:27:01.139Z,20.52
2023-03-02T20:29:05.486Z,22.45
2023-03-02T20:31:11.927Z,26.13
2023-03-02T20:33:15.961Z,27.13
2023-03-02T20:35:18.842Z,28.40
2023-03-02T20:37:22.604Z,27.20
2023-03-02T20:39:29.518Z,25.83
2023-03-02T20:41:32.824Z,24.15
2023-03-02T20:43:37.235Z,24.25
2023-03-02T20:45:40.827Z,24.60
2023-03-02T20:47:44.587Z,22.65
2023-03-02T20:49:47.462Z,22.83
2023-03-02T20:51:54.739Z,23.65
2023-03-02T20:53:57.661Z,23.45
2023-03-02T20:56:00.386Z,22.73
2023-03-02T20:58:05.381Z,22.00
2023-03-02T21:00:15.746Z,24.05
2023-03-02T21:02:20.333Z,26.88
2023-03-02T21:04:23.690Z,31.65
2023-03-02T21:06:27.195Z,33.05
2023-03-02T21:08:30.649Z,29.77
2023-03-02T21:10:37.606Z,28.20
2023-03-02T21:12:40.639Z,28.33
2023-03-02T21:14:43.674Z,27.75
2023-03-02T21:16:47.811Z,26.60
2023-03-02T21:18:50.639Z,25.17
2023-03-02T21:20:53.466Z,25.33
2023-03-02T21:22:56.635Z,25.65
2023-03-02T21:24:59.520Z,25.25
2023-03-02T21:27:02.590Z,25.50
2023-03-02T21:29:06.235Z,29.17
2023-03-02T21:31:09.068Z,28.98
2023-03-02T21:33:13.306Z,29.85
2023-03-02T21:35:19.835Z,32.38
2023-03-02T21:37:22.661Z,28.70
2023-03-02T21:39:25.474Z,31.40
2023-03-02T21:41:28.416Z,30.30
2023-03-02T21:43:31.234Z,28.95
2023-03-02T21:45:34.498Z,27.48
2023-03-02T21:47:39.462Z,25.42
2023-03-02T21:49:43.610Z,27.33
2023-03-02T21:51:48.895Z,28.75
2023-03-02T21:53:53.540Z,29.58
2023-03-02T21:55:56.420Z,27.23
2023-03-02T21:57:59.712Z,32.88
2023-03-02T22:00:04.526Z,30.55
2023-03-02T22:02:07.419Z,31.58
2023-03-02T22:04:10.343Z,32.25
2023-03-02T22:06:18.272Z,28.50
2023-03-02T22:08:22.204Z,29.00
2023-03-02T22:10:31.829Z,30.15
2023-03-02T22:12:34.619Z,32.22
2023-03-02T22:14:37.922Z,36.10
2023-03-02T22:16:42.287Z,32.92
2023-03-02T22:18:46.829Z,32.83
2023-03-02T22:20:52.102Z,31.05
2023-03-02T22:22:56.201Z,31.08
2023-03-02T22:24:58.990Z,32.17
2023-03-02T22:27:10.060Z,32.75
2023-03-02T22:29:16.674Z,34.90
2023-03-02T22:31:21.267Z,26.83
2023-03-02T22:33:26.224Z,26.27
2023-03-02T22:35:29.057Z,26.55
2023-03-02T22:37:34.880Z,28.40
2023-03-02T22:39:41.953Z,25.48
2023-03-02T22:41:44.994Z,24.83
2023-03-02T22:43:49.460Z,25.73
2023-03-02T22:45:52.999Z,29.33
2023-03-02T22:47:55.781Z,26.17
2023-03-02T22:50:01.244Z,26.30
2023-03-02T22:52:12.527Z,24.35
2023-03-02T22:54:24.963Z,25.88
2023-03-02T22:56:31.824Z,25.90
2023-03-02T22:58:45.974Z,25.50
2023-03-02T23:00:48.840Z,25.63
2023-03-02T23:02:53.710Z,26.35
2023-03-02T23:04:56.493Z,24.70
2023-03-02T23:07:01.015Z,26.08
2023-03-02T23:09:06.752Z,27.98
2023-03-02T23:11:16.975Z,29.65
2023-03-02T23:13:24.645Z,28.00
2023-03-02T23:15:28.929Z,40.25
2023-03-02T23:17:36.135Z,48.40
2023-03-02T23:19:38.863Z,41.80
2023-03-02T23:21:46.361Z,38.33
2023-03-02T23:23:49.842Z,31.00
2023-03-02T23:25:52.514Z,29.80
2023-03-02T23:27:55.202Z,29.88
2023-03-02T23:29:59.251Z,30.08
2023-03-02T23:32:02.079Z,30.90
2023-03-02T23:34:04.113Z,31.50
2023-03-02T23:36:07.721Z,30.02
2023-03-02T23:38:10.386Z,29.75
2023-03-02T23:40:13.564Z,27.63
2023-03-02T23:42:16.252Z,27.55
2023-03-02T23:44:19.816Z,28.20
2023-03-02T23:46:23.828Z,28.92
2023-03-02T23:48:26.477Z,28.98
2023-03-02T23:50:29.193Z,29.10
2023-03-02T23:52:31.900Z,28.48
2023-03-02T23:54:34.567Z,30.05
2023-03-02T23:56:37.274Z,28.02
2023-03-02T23:58:40.172Z,29.75
